createdAt,value
2022-09-05T00:01:49.471Z,81.50
2022-09-05T00:05:14.293Z,81.60
2022-09-05T00:08:26.029Z,81.50
2022-09-05T00:11:43.043Z,81.50
2022-09-05T00:15:16.396Z,81.50
2022-09-05T00:23:33.310Z,81.50
2022-09-05T00:24:24.785Z,81.50
2022-09-05T00:26:13.475Z,82.10
2022-09-05T00:31:07.635Z,81.60
2022-09-05T00:33:33.937Z,81.60
2022-09-05T00:36:46.594Z,81.60
2022-09-05T00:40:22.695Z,81.60
2022-09-05T00:43:33.178Z,81.50
2022-09-05T00:46:44.809Z,81.50
2022-09-05T00:50:00.116Z,81.50
2022-09-05T00:53:15.651Z,81.50
2022-09-05T00:56:41.221Z,81.50
2022-09-05T01:00:17.540Z,81.50
2022-09-05T01:03:46.770Z,81.50
2022-09-05T01:07:26.407Z,81.50
2022-09-05T01:10:43.865Z,81.40
2022-09-05T01:14:01.213Z,81.50
2022-09-05T01:17:34.156Z,81.40
2022-09-05T01:21:07.295Z,81.40
2022-09-05T01:24:33.791Z,81.40
2022-09-05T01:29:13.364Z,81.30
2022-09-05T01:31:32.627Z,81.30
2022-09-05T01:34:54.280Z,81.40
2022-09-05T01:38:05.454Z,81.30
2022-09-05T01:41:21.910Z,81.20
2022-09-05T01:44:47.223Z,81.30
2022-09-05T01:48:02.804Z,81.30
2022-09-05T01:51:29.381Z,81.30
2022-09-05T01:54:48.875Z,81.30
2022-09-05T01:58:03.907Z,81.30
2022-09-05T02:01:25.277Z,81.20
2022-09-05T02:05:12.162Z,81.20
2022-09-05T02:08:58.297Z,81.20
2022-09-05T02:12:10.652Z,81.10
2022-09-05T02:15:22.864Z,81.20
2022-09-05T02:18:46.349Z,81.20
2022-09-05T02:22:01.973Z,81.20
2022-09-05T02:26:00.761Z,81.20
2022-09-05T02:28:49.669Z,81.20
2022-09-05T02:32:00.189Z,81.10
2022-09-05T02:35:19.162Z,81.20
2022-09-05T02:41:29.109Z,81.10
2022-09-05T02:45:14.496Z,81.20
2022-09-05T02:45:42.521Z,81.20
2022-09-05T02:48:55.745Z,81.20
2022-09-05T02:57:27.590Z,81.10
2022-09-05T02:57:38.558Z,81.10
2022-09-05T02:59:36.165Z,81.10
2022-09-05T03:03:05.596Z,81.10
2022-09-05T03:06:34.218Z,81.00
2022-09-05T03:09:56.809Z,81.10
2022-09-05T03:13:48.810Z,81.10
2022-09-05T03:17:45.200Z,81.10
2022-09-05T03:21:29.805Z,81.10
2022-09-05T03:25:15.163Z,81.20
2022-09-05T03:28:46.466Z,81.30
2022-09-05T03:32:30.363Z,81.30
2022-09-05T03:36:16.716Z,81.20
2022-09-05T03:40:15.267Z,81.30
2022-09-05T03:43:58.088Z,81.30
2022-09-05T03:47:34.278Z,81.30
2022-09-05T03:57:01.789Z,81.20
2022-09-05T03:57:16.233Z,81.20
2022-09-05T03:58:57.064Z,81.20
2022-09-05T04:06:07.633Z,81.30
2022-09-05T04:08:23.638Z,81.30
2022-09-05T04:09:22.714Z,81.30
2022-09-05T04:12:51.358Z,81.20
2022-09-05T04:16:10.896Z,81.30
2022-09-05T04:19:25.910Z,81.20
2022-09-05T04:22:42.968Z,81.20
2022-09-05T04:26:11.143Z,81.20
2022-09-05T04:29:24.104Z,81.20
2022-09-05T04:32:41.046Z,81.20
2022-09-05T04:35:58.613Z,81.30
2022-09-05T04:39:24.568Z,81.20
2022-09-05T04:42:31.979Z,81.10
2022-09-05T04:45:42.729Z,81.40
2022-09-05T04:48:57.168Z,81.30
2022-09-05T04:52:30.965Z,81.20
2022-09-05T04:55:50.486Z,81.10
2022-09-05T05:00:27.358Z,81.10
2022-09-05T05:06:18.516Z,81.00
2022-09-05T05:09:44.861Z,81.10
2022-09-05T05:17:57.398Z,81.00
2022-09-05T05:18:15.972Z,81.10
2022-09-05T05:20:42.148Z,81.10
2022-09-05T05:23:42.834Z,81.20
2022-09-05T05:26:57.075Z,81.10
2022-09-05T05:30:07.959Z,81.10
2022-09-05T05:33:25.864Z,81.20
2022-09-05T05:36:37.146Z,81.20
2022-09-05T05:39:50.286Z,81.20
2022-09-05T05:43:16.223Z,81.30
2022-09-05T05:46:31.936Z,81.30
2022-09-05T05:49:52.003Z,81.40
2022-09-05T05:53:31.961Z,81.40
2022-09-05T05:56:54.702Z,81.50
2022-09-05T06:00:24.504Z,81.00
2022-09-05T06:03:55.160Z,82.00
2022-09-05T06:07:10.264Z,81.90
2022-09-05T06:15:02.192Z,81.70
2022-09-05T06:15:08.737Z,81.70
2022-09-05T06:19:04.756Z,81.60
2022-09-05T06:26:00.761Z,81.60
2022-09-05T06:29:18.564Z,81.50
2022-09-05T06:32:38.138Z,81.50
2022-09-05T06:36:11.937Z,81.60
2022-09-05T06:39:29.841Z,81.50
2022-09-05T06:42:52.354Z,81.60
2022-09-05T06:46:54.375Z,81.70
2022-09-05T06:50:27.522Z,81.70
2022-09-05T06:54:01.141Z,81.70
2022-09-05T06:57:38.663Z,81.80
2022-09-05T07:00:55.335Z,82.10
2022-09-05T07:05:23.619Z,81.90
2022-09-05T07:07:48.050Z,81.80
2022-09-05T07:11:02.922Z,81.80
2022-09-05T07:14:25.493Z,81.80
2022-09-05T07:18:08.554Z,81.80
2022-09-05T07:21:26.694Z,81.80
2022-09-05T07:24:54.453Z,81.90
2022-09-05T07:28:28.751Z,81.80
2022-09-05T07:31:37.943Z,81.80
2022-09-05T07:34:48.848Z,81.80
2022-09-05T07:38:04.108Z,81.70
2022-09-05T07:41:18.289Z,81.70
2022-09-05T07:44:28.723Z,81.70
2022-09-05T07:47:39.250Z,81.80
2022-09-05T07:55:12.407Z,81.70
2022-09-05T07:57:01.033Z,81.80
2022-09-05T07:57:51.411Z,81.90
2022-09-05T08:00:59.969Z,81.90
2022-09-05T08:04:06.889Z,82.30
2022-09-05T08:07:49.848Z,81.80
2022-09-05T08:11:24.934Z,82.40
2022-09-05T08:14:45.310Z,81.80
2022-09-05T08:18:07.053Z,81.80
2022-09-05T08:21:27.807Z,81.80
2022-09-05T08:24:40.688Z,81.90
2022-09-05T08:28:01.122Z,81.90
2022-09-05T08:31:12.482Z,82.00
2022-09-05T08:34:31.510Z,82.00
2022-09-05T08:37:52.638Z,81.90
2022-09-05T08:41:09.917Z,82.00
2022-09-05T08:46:43.692Z,82.00
2022-09-05T08:47:53.266Z,82.00
2022-09-05T08:51:29.666Z,81.40
2022-09-05T08:54:44.825Z,82.30
2022-09-05T08:58:18.500Z,82.40
2022-09-05T09:01:39.517Z,82.60
2022-09-05T09:05:14.193Z,83.00
2022-09-05T09:08:34.857Z,82.50
2022-09-05T09:11:49.820Z,82.40
2022-09-05T09:15:00.747Z,82.80
2022-09-05T09:18:15.292Z,82.50
2022-09-05T09:21:29.484Z,82.90
2022-09-05T09:24:43.182Z,86.70
2022-09-05T09:28:48.630Z,87.10
2022-09-05T09:32:06.668Z,88.40
2022-09-05T09:35:24.666Z,89.10
2022-09-05T09:38:43.205Z,88.30
2022-09-05T09:42:00.956Z,87.60
2022-09-05T09:45:28.512Z,87.90
2022-09-05T09:49:04.491Z,88.50
2022-09-05T09:53:16.223Z,88.50
2022-09-05T09:56:59.735Z,88.70
2022-09-05T10:00:14.797Z,86.50
2022-09-05T10:08:32.208Z,87.20
2022-09-05T10:10:58.713Z,86.20
2022-09-05T10:11:54.318Z,84.40
2022-09-05T10:15:30.232Z,83.70
2022-09-05T10:18:51.001Z,85.50
2022-09-05T10:22:37.860Z,83.50
2022-09-05T10:26:19.778Z,85.00
2022-09-05T10:29:43.886Z,83.30
2022-09-05T10:35:15.100Z,84.30
2022-09-05T10:36:57.931Z,83.50
2022-09-05T10:40:10.050Z,84.20
2022-09-05T10:43:25.469Z,84.40
2022-09-05T10:46:56.738Z,83.50
2022-09-05T10:50:13.599Z,86.10
2022-09-05T10:53:28.224Z,86.30
2022-09-05T10:56:50.090Z,85.90
2022-09-05T11:01:56.048Z,87.40
2022-09-05T11:03:46.807Z,87.30
2022-09-05T11:06:56.545Z,86.90
2022-09-05T11:10:08.189Z,89.10
2022-09-05T11:13:29.756Z,88.00
2022-09-05T11:16:48.385Z,86.50
2022-09-05T11:20:23.669Z,87.70
2022-09-05T11:23:48.700Z,86.80
2022-09-05T11:27:25.333Z,86.20
2022-09-05T11:30:40.647Z,87.90
2022-09-05T11:39:52.769Z,87.80
2022-09-05T11:40:06.174Z,86.40
2022-09-05T11:42:30.951Z,84.50
2022-09-05T11:46:10.536Z,83.60
2022-09-05T11:49:44.936Z,82.70
2022-09-05T11:53:31.153Z,81.30
2022-09-05T11:57:32.558Z,81.80
2022-09-05T12:00:34.888Z,83.20
2022-09-05T12:04:05.747Z,84.40
2022-09-05T12:07:47.022Z,85.00
2022-09-05T12:11:05.639Z,83.50
2022-09-05T12:14:33.474Z,82.90
2022-09-05T12:17:54.124Z,85.90
2022-09-05T12:21:19.650Z,83.60
2022-09-05T12:25:24.451Z,83.50
2022-09-05T12:29:26.479Z,82.90
2022-09-05T12:32:49.589Z,82.60
2022-09-05T12:38:44.317Z,83.20
2022-09-05T12:40:58.474Z,82.30
2022-09-05T12:42:25.630Z,84.90
2022-09-05T12:45:45.425Z,84.50
2022-09-05T12:49:01.482Z,83.40
2022-09-05T12:52:20.399Z,83.30
2022-09-05T12:55:33.721Z,83.50
2022-09-05T13:03:02.011Z,84.50
2022-09-05T13:03:12.853Z,81.60
2022-09-05T13:05:52.982Z,83.50
2022-09-05T13:09:04.980Z,83.00
2022-09-05T13:14:59.081Z,84.10
2022-09-05T13:15:53.471Z,84.60
2022-09-05T13:19:07.941Z,82.50
2022-09-05T13:22:17.916Z,80.80
2022-09-05T13:25:27.401Z,82.20
2022-09-05T13:28:43.191Z,81.90
2022-09-05T13:37:58.389Z,82.70
2022-09-05T13:38:11.857Z,82.60
2022-09-05T13:39:07.891Z,80.90
2022-09-05T13:42:18.684Z,81.90
2022-09-05T13:45:27.406Z,82.50
2022-09-05T13:52:29.201Z,80.70
2022-09-05T13:55:44.157Z,81.50
2022-09-05T13:58:57.167Z,78.90
2022-09-05T14:02:31.522Z,83.20
2022-09-05T14:05:48.185Z,80.30
2022-09-05T14:12:38.965Z,82.20
2022-09-05T14:15:52.862Z,81.90
2022-09-05T14:19:18.498Z,81.10
2022-09-05T14:22:44.145Z,80.70
2022-09-05T14:25:56.520Z,82.10
2022-09-05T14:29:14.311Z,81.60
2022-09-05T14:37:39.712Z,80.80
2022-09-05T14:37:45.117Z,81.30
2022-09-05T14:39:51.167Z,80.50
2022-09-05T14:43:02.964Z,80.70
2022-09-05T14:46:24.249Z,80.50
2022-09-05T14:49:49.318Z,80.30
2022-09-05T14:52:43.711Z,80.10
2022-09-05T14:55:36.897Z,79.60
2022-09-05T15:02:49.862Z,79.60
2022-09-05T15:02:58.672Z,80.00
2022-09-05T15:05:11.268Z,79.70
2022-09-05T15:08:03.980Z,80.00
2022-09-05T15:12:17.200Z,79.30
2022-09-05T15:14:24.037Z,79.80
2022-09-05T15:17:22.906Z,79.40
2022-09-05T15:20:11.756Z,79.00
2022-09-05T15:23:03.662Z,81.20
2022-09-05T15:26:07.046Z,83.70
2022-09-05T15:29:14.069Z,82.10
2022-09-05T15:32:14.833Z,81.70
2022-09-05T15:35:03.650Z,80.90
2022-09-05T15:37:51.828Z,82.20
2022-09-05T15:40:40.284Z,82.10
2022-09-05T15:43:28.392Z,81.50
2022-09-05T15:46:24.060Z,80.90
2022-09-05T15:49:29.365Z,80.60
2022-09-05T15:52:38.489Z,80.10
2022-09-05T15:55:28.172Z,80.20
2022-09-05T15:58:18.524Z,80.30
2022-09-05T16:01:31.226Z,80.40
2022-09-05T16:08:31.388Z,80.50
2022-09-05T16:10:33.561Z,80.40
2022-09-05T16:11:05.437Z,80.40
2022-09-05T16:14:16.778Z,80.60
2022-09-05T16:23:18.192Z,80.70
2022-09-05T16:23:24.936Z,80.40
2022-09-05T16:23:42.727Z,80.20
2022-09-05T16:26:34.797Z,80.10
2022-09-05T16:29:26.724Z,80.30
2022-09-05T16:32:21.979Z,80.40
2022-09-05T16:35:14.273Z,80.50
2022-09-05T16:38:12.988Z,79.60
2022-09-05T16:41:06.802Z,81.40
2022-09-05T16:43:59.883Z,82.00
2022-09-05T16:47:05.724Z,81.70
2022-09-05T16:50:03.354Z,81.30
2022-09-05T16:53:16.008Z,81.00
2022-09-05T16:56:17.808Z,80.90
2022-09-05T16:59:11.085Z,80.80
2022-09-05T17:02:10.440Z,80.60
2022-09-05T17:05:15.252Z,80.30
2022-09-05T17:08:09.143Z,80.20
2022-09-05T17:11:06.243Z,80.40
2022-09-05T17:14:15.219Z,80.60
2022-09-05T17:17:20.189Z,80.50
2022-09-05T17:20:17.506Z,80.70
2022-09-05T17:28:30.012Z,80.70
2022-09-05T17:29:24.589Z,80.80
2022-09-05T17:31:22.075Z,80.70
2022-09-05T17:33:18.664Z,80.70
2022-09-05T17:36:16.425Z,80.50
2022-09-05T17:39:16.162Z,80.70
2022-09-05T17:42:16.878Z,80.70
2022-09-05T17:45:17.224Z,80.80
2022-09-05T17:48:05.940Z,80.80
2022-09-05T17:50:58.799Z,80.80
2022-09-05T17:54:24.210Z,80.80
2022-09-05T17:57:40.208Z,80.80
2022-09-05T18:01:01.244Z,80.90
2022-09-05T18:04:16.879Z,80.90
2022-09-05T18:07:58.594Z,80.50
2022-09-05T18:11:02.454Z,80.40
2022-09-05T18:14:05.067Z,80.60
2022-09-05T18:17:36.997Z,80.80
2022-09-05T18:20:12.156Z,80.60
2022-09-05T18:23:39.404Z,82.60
2022-09-05T18:26:30.942Z,81.70
2022-09-05T18:29:28.737Z,81.10
2022-09-05T18:32:45.549Z,80.90
2022-09-05T18:35:38.287Z,80.90
2022-09-05T18:38:51.160Z,80.90
2022-09-05T18:41:38.884Z,80.60
2022-09-05T18:44:28.871Z,80.00
2022-09-05T18:47:33.083Z,80.00
2022-09-05T18:50:27.889Z,80.20
2022-09-05T18:53:25.429Z,79.90
2022-09-05T18:56:27.288Z,79.90
2022-09-05T18:59:24.240Z,79.80
2022-09-05T19:02:26.925Z,79.60
2022-09-05T19:05:41.864Z,79.80
2022-09-05T19:08:33.896Z,79.80
2022-09-05T19:11:28.625Z,79.80
2022-09-05T19:14:35.501Z,80.20
2022-09-05T19:17:33.070Z,80.10
2022-09-05T19:20:32.947Z,80.80
2022-09-05T19:23:24.257Z,81.00
2022-09-05T19:26:14.344Z,81.30
2022-09-05T19:36:55.588Z,80.80
2022-09-05T19:36:58.724Z,80.90
2022-09-05T19:37:12.707Z,81.00
2022-09-05T19:40:18.424Z,80.20
2022-09-05T19:47:43.862Z,80.00
2022-09-05T19:47:51.727Z,80.10
2022-09-05T19:51:18.722Z,80.10
2022-09-05T19:54:23.324Z,80.20
2022-09-05T19:57:19.517Z,80.30
2022-09-05T20:00:09.591Z,80.10
2022-09-05T20:03:02.463Z,80.20
2022-09-05T20:05:51.595Z,80.20
2022-09-05T20:08:40.040Z,80.20
2022-09-05T20:11:37.249Z,80.30
2022-09-05T20:14:36.988Z,80.30
2022-09-05T20:17:29.304Z,80.20
2022-09-05T20:20:22.621Z,79.80
2022-09-05T20:23:11.441Z,79.80
2022-09-05T20:26:00.814Z,79.90
2022-09-05T20:28:54.606Z,79.70
2022-09-05T20:31:45.215Z,80.10
2022-09-05T20:36:17.090Z,80.00
2022-09-05T20:43:10.384Z,79.90
2022-09-05T20:43:21.746Z,80.10
2022-09-05T20:44:22.390Z,80.10
2022-09-05T20:54:04.298Z,80.20
2022-09-05T20:54:09.987Z,80.30
2022-09-05T20:54:32.224Z,80.20
2022-09-05T20:56:53.329Z,80.10
2022-09-05T20:59:47.512Z,80.20
2022-09-05T21:02:37.453Z,80.20
2022-09-05T21:05:28.452Z,80.20
2022-09-05T21:08:32.743Z,80.20
2022-09-05T21:11:31.190Z,80.20
2022-09-05T21:14:21.426Z,80.30
2022-09-05T21:17:15.696Z,80.40
2022-09-05T21:20:09.891Z,80.40
2022-09-05T21:22:58.317Z,80.30
2022-09-05T21:25:52.511Z,80.30
2022-09-05T21:28:44.342Z,80.20
2022-09-05T21:31:42.968Z,80.30
2022-09-05T21:34:34.439Z,80.20
2022-09-05T21:37:24.578Z,80.20
2022-09-05T21:40:13.595Z,80.80
2022-09-05T21:47:35.316Z,80.20
2022-09-05T21:47:47.587Z,80.30
2022-09-05T21:49:22.799Z,80.20
2022-09-05T21:52:11.988Z,80.20
2022-09-05T21:59:20.935Z,80.20
2022-09-05T21:59:24.927Z,80.20
2022-09-05T22:01:50.738Z,80.20
2022-09-05T22:04:41.261Z,80.20
2022-09-05T22:07:33.001Z,80.20
2022-09-05T22:10:23.393Z,80.20
2022-09-05T22:13:24.472Z,80.20
2022-09-05T22:16:14.890Z,80.20
2022-09-05T22:19:03.751Z,80.30
2022-09-05T22:21:54.642Z,80.20
2022-09-05T22:24:46.641Z,80.30
2022-09-05T22:27:38.630Z,80.20
2022-09-05T22:30:28.419Z,80.30
2022-09-05T22:33:17.083Z,80.30
2022-09-05T22:36:06.023Z,80.30
2022-09-05T22:38:54.727Z,80.40
2022-09-05T22:41:43.683Z,80.40
2022-09-05T22:44:33.538Z,80.40
2022-09-05T22:47:21.940Z,80.40
2022-09-05T22:50:10.423Z,80.50
2022-09-05T22:52:59.127Z,80.60
2022-09-05T22:55:47.197Z,80.80
2022-09-05T22:58:39.132Z,80.70
2022-09-05T23:01:28.764Z,80.70
2022-09-05T23:04:17.377Z,80.70
2022-09-05T23:07:05.793Z,80.70
2022-09-05T23:09:54.523Z,80.70
2022-09-05T23:12:42.751Z,80.60
2022-09-05T23:15:31.461Z,80.60
2022-09-05T23:18:20.950Z,80.80
2022-09-05T23:21:11.815Z,80.80
2022-09-05T23:24:00.225Z,80.70
2022-09-05T23:26:48.720Z,80.80
2022-09-05T23:29:37.872Z,80.80
2022-09-05T23:32:26.549Z,80.80
2022-09-05T23:35:17.307Z,81.00
2022-09-05T23:38:10.589Z,81.00
2022-09-05T23:41:02.924Z,80.90
2022-09-05T23:43:51.595Z,80.90
2022-09-05T23:46:40.672Z,80.90
2022-09-05T23:49:28.966Z,80.90
2022-09-05T23:52:18.742Z,80.90
2022-09-05T23:55:08.354Z,81.00
2022-09-05T23:57:58.809Z,81.00
